sensor_id;sensor_type;location;lat;lon;timestamp;P1;durP1;ratioP1;P2;durP2;ratioP2
34497;SDS011;20744;50.938;7.286;2023-04-24T00:00:27;6.38;;;0.43;;
34497;SDS011;20744;50.938;7.286;2023-04-24T00:02:55;4.28;;;0.40;;
34497;SDS011;20744;50.938;7.286;2023-04-24T00:05:22;1.15;;;0.43;;
34497;SDS011;20744;50.938;7.286;2023-04-24T00:07:50;2.42;;;0.50;;
34497;SDS011;20744;50.938;7.286;2023-04-24T00:10:18;2.25;;;0.47;;
34497;SDS011;20744;50.938;7.286;2023-04-24T00:12:45;1.30;;;0.50;;
34497;SDS011;20744;50.938;7.286;2023-04-24T00:15:13;1.50;;;0.57;;
34497;SDS011;20744;50.938;7.286;2023-04-24T00:17:41;1.92;;;0.70;;
34497;SDS011;20744;50.938;7.286;2023-04-24T00:20:09;7.93;;;0.60;;
34497;SDS011;20744;50.938;7.286;2023-04-24T00:22:36;2.45;;;0.55;;
34497;SDS011;20744;50.938;7.286;2023-04-24T00:25:04;1.17;;;0.57;;
34497;SDS011;20744;50.938;7.286;2023-04-24T00:27:31;1.30;;;0.70;;
34497;SDS011;20744;50.938;7.286;2023-04-24T00:30:00;3.47;;;0.50;;
34497;SDS011;20744;50.938;7.286;2023-04-24T00:32:27;1.00;;;0.57;;
34497;SDS011;20744;50.938;7.286;2023-04-24T00:34:56;0.60;;;0.43;;
34497;SDS011;20744;50.938;7.286;2023-04-24T00:37:23;0.98;;;0.50;;
34497;SDS011;20744;50.938;7.286;2023-04-24T00:39:50;0.63;;;0.50;;
34497;SDS011;20744;50.938;7.286;2023-04-24T00:42:17;0.90;;;0.60;;
34497;SDS011;20744;50.938;7.286;2023-04-24T00:44:45;1.23;;;0.47;;
34497;SDS011;20744;50.938;7.286;2023-04-24T00:47:12;1.08;;;0.50;;
34497;SDS011;20744;50.938;7.286;2023-04-24T00:49:39;2.72;;;0.50;;
34497;SDS011;20744;50.938;7.286;2023-04-24T00:52:08;1.13;;;0.50;;
34497;SDS011;20744;50.938;7.286;2023-04-24T00:54:35;1.67;;;0.63;;
34497;SDS011;20744;50.938;7.286;2023-04-24T00:57:03;4.82;;;0.75;;
34497;SDS011;20744;50.938;7.286;2023-04-24T00:59:30;2.15;;;0.70;;
34497;SDS011;20744;50.938;7.286;2023-04-24T01:01:58;2.58;;;0.50;;
34497;SDS011;20744;50.938;7.286;2023-04-24T01:04:25;5.82;;;0.70;;
34497;SDS011;20744;50.938;7.286;2023-04-24T01:06:52;1.10;;;0.50;;
34497;SDS011;20744;50.938;7.286;2023-04-24T01:09:23;5.35;;;0.70;;
34497;SDS011;20744;50.938;7.286;2023-04-24T01:11:51;1.85;;;0.60;;
34497;SDS011;20744;50.938;7.286;2023-04-24T01:14:19;0.50;;;0.50;;
34497;SDS011;20744;50.938;7.286;2023-04-24T01:16:46;3.35;;;0.50;;
34497;SDS011;20744;50.938;7.286;2023-04-24T01:19:14;2.08;;;0.60;;
34497;SDS011;20744;50.938;7.286;2023-04-24T01:21:42;1.33;;;0.60;;
34497;SDS011;20744;50.938;7.286;2023-04-24T01:24:11;1.10;;;0.70;;
34497;SDS011;20744;50.938;7.286;2023-04-24T01:26:38;1.08;;;0.40;;
34497;SDS011;20744;50.938;7.286;2023-04-24T01:29:06;1.63;;;0.55;;
34497;SDS011;20744;50.938;7.286;2023-04-24T01:31:33;3.20;;;0.50;;
34497;SDS011;20744;50.938;7.286;2023-04-24T01:34:01;0.75;;;0.40;;
34497;SDS011;20744;50.938;7.286;2023-04-24T01:36:28;1.70;;;0.52;;
34497;SDS011;20744;50.938;7.286;2023-04-24T01:38:56;2.10;;;0.60;;
34497;SDS011;20744;50.938;7.286;2023-04-24T01:41:25;3.50;;;0.40;;
34497;SDS011;20744;50.938;7.286;2023-04-24T01:43:52;2.80;;;0.88;;
34497;SDS011;20744;50.938;7.286;2023-04-24T01:46:20;1.15;;;0.47;;
34497;SDS011;20744;50.938;7.286;2023-04-24T01:48:47;2.58;;;0.75;;
34497;SDS011;20744;50.938;7.286;2023-04-24T01:51:15;1.45;;;0.80;;
34497;SDS011;20744;50.938;7.286;2023-04-24T01:53:42;8.77;;;1.35;;
34497;SDS011;20744;50.938;7.286;2023-04-24T01:56:09;2.30;;;0.80;;
34497;SDS011;20744;50.938;7.286;2023-04-24T01:58:38;2.15;;;0.90;;
34497;SDS011;20744;50.938;7.286;2023-04-24T02:01:06;1.00;;;0.85;;
34497;SDS011;20744;50.938;7.286;2023-04-24T02:03:33;1.95;;;1.15;;
34497;SDS011;20744;50.938;7.286;2023-04-24T02:06:00;4.32;;;1.23;;
34497;SDS011;20744;50.938;7.286;2023-04-24T02:08:27;3.67;;;1.30;;
34497;SDS011;20744;50.938;7.286;2023-04-24T02:10:55;2.40;;;1.30;;
34497;SDS011;20744;50.938;7.286;2023-04-24T02:13:22;4.18;;;1.23;;
34497;SDS011;20744;50.938;7.286;2023-04-24T02:15:51;2.90;;;1.65;;
34497;SDS011;20744;50.938;7.286;2023-04-24T02:18:18;3.10;;;1.33;;
34497;SDS011;20744;50.938;7.286;2023-04-24T02:20:45;2.72;;;1.33;;
34497;SDS011;20744;50.938;7.286;2023-04-24T02:23:12;2.83;;;1.30;;
34497;SDS011;20744;50.938;7.286;2023-04-24T02:25:40;2.00;;;1.20;;
34497;SDS011;20744;50.938;7.286;2023-04-24T02:28:07;2.20;;;1.20;;
34497;SDS011;20744;50.938;7.286;2023-04-24T02:30:34;2.90;;;1.35;;
34497;SDS011;20744;50.938;7.286;2023-04-24T02:33:03;2.85;;;1.60;;
34497;SDS011;20744;50.938;7.286;2023-04-24T02:35:30;3.92;;;1.40;;
34497;SDS011;20744;50.938;7.286;2023-04-24T02:37:57;3.38;;;1.50;;
34497;SDS011;20744;50.938;7.286;2023-04-24T02:40:25;1.90;;;1.42;;
34497;SDS011;20744;50.938;7.286;2023-04-24T02:42:52;7.10;;;1.70;;
34497;SDS011;20744;50.938;7.286;2023-04-24T02:45:19;3.13;;;1.80;;
34497;SDS011;20744;50.938;7.286;2023-04-24T02:47:47;4.10;;;1.80;;
34497;SDS011;20744;50.938;7.286;2023-04-24T02:50:15;2.50;;;1.70;;
34497;SDS011;20744;50.938;7.286;2023-04-24T02:52:43;1.90;;;1.55;;
34497;SDS011;20744;50.938;7.286;2023-04-24T02:55:10;5.05;;;2.13;;
34497;SDS011;20744;50.938;7.286;2023-04-24T02:57:37;3.28;;;2.00;;
34497;SDS011;20744;50.938;7.286;2023-04-24T03:00:05;3.65;;;2.00;;
34497;SDS011;20744;50.938;7.286;2023-04-24T03:02:34;4.72;;;2.47;;
34497;SDS011;20744;50.938;7.286;2023-04-24T03:05:03;5.80;;;2.25;;
34497;SDS011;20744;50.938;7.286;2023-04-24T03:07:31;4.50;;;2.60;;
34497;SDS011;20744;50.938;7.286;2023-04-24T03:09:59;4.72;;;2.80;;
34497;SDS011;20744;50.938;7.286;2023-04-24T03:12:26;4.63;;;3.20;;
34497;SDS011;20744;50.938;7.286;2023-04-24T03:14:56;4.00;;;2.85;;
34497;SDS011;20744;50.938;7.286;2023-04-24T03:17:23;3.72;;;2.88;;
34497;SDS011;20744;50.938;7.286;2023-04-24T03:19:50;4.95;;;3.20;;
34497;SDS011;20744;50.938;7.286;2023-04-24T03:22:17;9.23;;;2.90;;
34497;SDS011;20744;50.938;7.286;2023-04-24T03:24:46;8.15;;;3.70;;
34497;SDS011;20744;50.938;7.286;2023-04-24T03:27:13;9.93;;;3.22;;
34497;SDS011;20744;50.938;7.286;2023-04-24T03:29:41;5.30;;;3.45;;
34497;SDS011;20744;50.938;7.286;2023-04-24T03:32:08;6.55;;;3.70;;
34497;SDS011;20744;50.938;7.286;2023-04-24T03:34:35;9.77;;;3.80;;
34497;SDS011;20744;50.938;7.286;2023-04-24T03:37:02;6.45;;;3.75;;
34497;SDS011;20744;50.938;7.286;2023-04-24T03:39:30;5.38;;;3.30;;
34497;SDS011;20744;50.938;7.286;2023-04-24T03:41:58;8.30;;;3.55;;
34497;SDS011;20744;50.938;7.286;2023-04-24T03:44:26;7.25;;;3.63;;
34497;SDS011;20744;50.938;7.286;2023-04-24T03:46:53;7.63;;;3.80;;
34497;SDS011;20744;50.938;7.286;2023-04-24T03:49:21;8.38;;;3.67;;
34497;SDS011;20744;50.938;7.286;2023-04-24T03:51:48;5.93;;;3.50;;
34497;SDS011;20744;50.938;7.286;2023-04-24T03:54:15;6.15;;;3.70;;
34497;SDS011;20744;50.938;7.286;2023-04-24T03:56:43;6.00;;;3.60;;
34497;SDS011;20744;50.938;7.286;2023-04-24T03:59:11;6.72;;;3.67;;
34497;SDS011;20744;50.938;7.286;2023-04-24T04:01:38;8.70;;;3.70;;
34497;SDS011;20744;50.938;7.286;2023-04-24T04:04:06;6.53;;;3.90;;
34497;SDS011;20744;50.938;7.286;2023-04-24T04:06:33;7.25;;;3.88;;
34497;SDS011;20744;50.938;7.286;2023-04-24T04:09:01;5.75;;;3.75;;
34497;SDS011;20744;50.938;7.286;2023-04-24T04:11:29;6.75;;;3.53;;
34497;SDS011;20744;50.938;7.286;2023-04-24T04:13:56;12.90;;;3.88;;
34497;SDS011;20744;50.938;7.286;2023-04-24T04:16:25;6.47;;;3.75;;
34497;SDS011;20744;50.938;7.286;2023-04-24T04:18:52;5.13;;;3.40;;
34497;SDS011;20744;50.938;7.286;2023-04-24T04:21:20;4.88;;;3.90;;
34497;SDS011;20744;50.938;7.286;2023-04-24T04:23:47;5.68;;;3.50;;
34497;SDS011;20744;50.938;7.286;2023-04-24T04:26:14;5.43;;;3.22;;
34497;SDS011;20744;50.938;7.286;2023-04-24T04:28:44;8.25;;;3.60;;
34497;SDS011;20744;50.938;7.286;2023-04-24T04:31:12;6.53;;;3.70;;
34497;SDS011;20744;50.938;7.286;2023-04-24T04:33:41;7.47;;;3.53;;
34497;SDS011;20744;50.938;7.286;2023-04-24T04:36:08;7.30;;;3.83;;
34497;SDS011;20744;50.938;7.286;2023-04-24T04:38:35;4.47;;;3.70;;
34497;SDS011;20744;50.938;7.286;2023-04-24T04:41:03;5.43;;;3.47;;
34497;SDS011;20744;50.938;7.286;2023-04-24T04:43:30;5.03;;;3.60;;
34497;SDS011;20744;50.938;7.286;2023-04-24T04:45:59;6.47;;;3.53;;
34497;SDS011;20744;50.938;7.286;2023-04-24T04:48:28;7.20;;;4.13;;
34497;SDS011;20744;50.938;7.286;2023-04-24T04:50:57;6.70;;;3.85;;
34497;SDS011;20744;50.938;7.286;2023-04-24T04:53:25;6.88;;;3.90;;
34497;SDS011;20744;50.938;7.286;2023-04-24T04:55:52;7.75;;;4.00;;
34497;SDS011;20744;50.938;7.286;2023-04-24T04:58:19;9.60;;;4.10;;
34497;SDS011;20744;50.938;7.286;2023-04-24T05:00:47;6.85;;;3.95;;
34497;SDS011;20744;50.938;7.286;2023-04-24T05:03:14;6.97;;;3.90;;
34497;SDS011;20744;50.938;7.286;2023-04-24T05:05:41;9.63;;;3.60;;
34497;SDS011;20744;50.938;7.286;2023-04-24T05:08:10;8.82;;;4.28;;
34497;SDS011;20744;50.938;7.286;2023-04-24T05:10:37;5.10;;;3.60;;
34497;SDS011;20744;50.938;7.286;2023-04-24T05:13:04;5.00;;;3.30;;
34497;SDS011;20744;50.938;7.286;2023-04-24T05:15:32;9.55;;;3.42;;
34497;SDS011;20744;50.938;7.286;2023-04-24T05:17:59;5.50;;;4.03;;
34497;SDS011;20744;50.938;7.286;2023-04-24T05:20:26;6.03;;;3.53;;
34497;SDS011;20744;50.938;7.286;2023-04-24T05:22:53;9.77;;;3.58;;
34497;SDS011;20744;50.938;7.286;2023-04-24T05:25:22;9.77;;;3.67;;
34497;SDS011;20744;50.938;7.286;2023-04-24T05:27:49;8.02;;;3.50;;
34497;SDS011;20744;50.938;7.286;2023-04-24T05:30:18;4.28;;;3.30;;
34497;SDS011;20744;50.938;7.286;2023-04-24T05:32:47;6.00;;;3.47;;
34497;SDS011;20744;50.938;7.286;2023-04-24T05:35:14;6.35;;;3.50;;
34497;SDS011;20744;50.938;7.286;2023-04-24T05:37:41;6.60;;;3.50;;
34497;SDS011;20744;50.938;7.286;2023-04-24T05:40:09;8.73;;;3.92;;
34497;SDS011;20744;50.938;7.286;2023-04-24T05:42:38;8.52;;;3.47;;
34497;SDS011;20744;50.938;7.286;2023-04-24T05:45:06;8.95;;;3.53;;
34497;SDS011;20744;50.938;7.286;2023-04-24T05:47:34;6.78;;;3.30;;
34497;SDS011;20744;50.938;7.286;2023-04-24T05:50:01;5.50;;;3.50;;
34497;SDS011;20744;50.938;7.286;2023-04-24T05:52:29;5.38;;;3.92;;
34497;SDS011;20744;50.938;7.286;2023-04-24T05:54:56;7.18;;;3.70;;
34497;SDS011;20744;50.938;7.286;2023-04-24T05:57:23;4.78;;;3.70;;
34497;SDS011;20744;50.938;7.286;2023-04-24T05:59:52;5.90;;;3.90;;
34497;SDS011;20744;50.938;7.286;2023-04-24T06:02:19;9.05;;;3.95;;
34497;SDS011;20744;50.938;7.286;2023-04-24T06:04:46;6.80;;;3.97;;
34497;SDS011;20744;50.938;7.286;2023-04-24T06:07:14;8.77;;;3.80;;
34497;SDS011;20744;50.938;7.286;2023-04-24T06:09:41;7.82;;;3.80;;
34497;SDS011;20744;50.938;7.286;2023-04-24T06:12:08;8.63;;;4.50;;
34497;SDS011;20744;50.938;7.286;2023-04-24T06:14:35;6.00;;;4.00;;
34497;SDS011;20744;50.938;7.286;2023-04-24T06:17:04;7.95;;;4.00;;
34497;SDS011;20744;50.938;7.286;2023-04-24T06:19:31;7.15;;;4.15;;
34497;SDS011;20744;50.938;7.286;2023-04-24T06:21:58;7.90;;;4.88;;
34497;SDS011;20744;50.938;7.286;2023-04-24T06:24:27;8.93;;;4.38;;
34497;SDS011;20744;50.938;7.286;2023-04-24T06:26:54;8.25;;;5.15;;
34497;SDS011;20744;50.938;7.286;2023-04-24T06:29:22;9.00;;;5.00;;
34497;SDS011;20744;50.938;7.286;2023-04-24T06:31:49;6.53;;;4.85;;
34497;SDS011;20744;50.938;7.286;2023-04-24T06:34:18;6.88;;;5.00;;
34497;SDS011;20744;50.938;7.286;2023-04-24T06:36:46;7.68;;;4.72;;
34497;SDS011;20744;50.938;7.286;2023-04-24T06:39:13;8.50;;;5.28;;
34497;SDS011;20744;50.938;7.286;2023-04-24T06:41:40;6.43;;;4.75;;
34497;SDS011;20744;50.938;7.286;2023-04-24T06:44:08;12.48;;;5.05;;
34497;SDS011;20744;50.938;7.286;2023-04-24T06:46:35;6.90;;;5.05;;
34497;SDS011;20744;50.938;7.286;2023-04-24T06:49:02;7.40;;;5.03;;
34497;SDS011;20744;50.938;7.286;2023-04-24T06:51:31;14.73;;;6.05;;
34497;SDS011;20744;50.938;7.286;2023-04-24T06:54:00;7.75;;;5.65;;
34497;SDS011;20744;50.938;7.286;2023-04-24T06:56:27;14.88;;;7.80;;
34497;SDS011;20744;50.938;7.286;2023-04-24T06:58:54;12.32;;;6.50;;
34497;SDS011;20744;50.938;7.286;2023-04-24T07:01:22;9.48;;;6.57;;
34497;SDS011;20744;50.938;7.286;2023-04-24T07:03:49;11.48;;;6.68;;
34497;SDS011;20744;50.938;7.286;2023-04-24T07:06:17;15.02;;;7.25;;
34497;SDS011;20744;50.938;7.286;2023-04-24T07:08:49;13.75;;;7.70;;
34497;SDS011;20744;50.938;7.286;2023-04-24T07:11:16;13.32;;;7.95;;
34497;SDS011;20744;50.938;7.286;2023-04-24T07:13:43;10.82;;;7.40;;
34497;SDS011;20744;50.938;7.286;2023-04-24T07:16:10;9.07;;;7.25;;
34497;SDS011;20744;50.938;7.286;2023-04-24T07:18:38;15.70;;;7.75;;
34497;SDS011;20744;50.938;7.286;2023-04-24T07:21:05;15.63;;;8.65;;
34497;SDS011;20744;50.938;7.286;2023-04-24T07:23:33;14.90;;;8.55;;
34497;SDS011;20744;50.938;7.286;2023-04-24T07:26:01;16.20;;;7.90;;
34497;SDS011;20744;50.938;7.286;2023-04-24T07:28:29;16.13;;;8.55;;
34497;SDS011;20744;50.938;7.286;2023-04-24T07:30:56;9.98;;;6.53;;
34497;SDS011;20744;50.938;7.286;2023-04-24T07:33:24;9.82;;;7.45;;
34497;SDS011;20744;50.938;7.286;2023-04-24T07:35:52;10.27;;;7.00;;
34497;SDS011;20744;50.938;7.286;2023-04-24T07:38:19;16.52;;;7.18;;
34497;SDS011;20744;50.938;7.286;2023-04-24T07:40:47;12.63;;;7.53;;
34497;SDS011;20744;50.938;7.286;2023-04-24T07:43:15;14.30;;;7.30;;
34497;SDS011;20744;50.938;7.286;2023-04-24T07:45:43;7.97;;;5.07;;
34497;SDS011;20744;50.938;7.286;2023-04-24T07:48:10;7.40;;;4.93;;
34497;SDS011;20744;50.938;7.286;2023-04-24T07:50:39;5.20;;;3.83;;
34497;SDS011;20744;50.938;7.286;2023-04-24T07:53:07;6.38;;;3.90;;
34497;SDS011;20744;50.938;7.286;2023-04-24T07:55:34;8.60;;;4.10;;
34497;SDS011;20744;50.938;7.286;2023-04-24T07:58:01;6.53;;;3.83;;
34497;SDS011;20744;50.938;7.286;2023-04-24T08:00:30;5.40;;;3.65;;
34497;SDS011;20744;50.938;7.286;2023-04-24T08:02:57;3.97;;;2.75;;
34497;SDS011;20744;50.938;7.286;2023-04-24T08:05:24;7.95;;;3.25;;
34497;SDS011;20744;50.938;7.286;2023-04-24T08:07:53;6.00;;;2.65;;
34497;SDS011;20744;50.938;7.286;2023-04-24T08:10:20;3.17;;;2.10;;
34497;SDS011;20744;50.938;7.286;2023-04-24T08:12:48;4.90;;;2.10;;
34497;SDS011;20744;50.938;7.286;2023-04-24T08:15:15;5.00;;;1.45;;
34497;SDS011;20744;50.938;7.286;2023-04-24T08:17:44;8.88;;;2.00;;
34497;SDS011;20744;50.938;7.286;2023-04-24T08:20:12;3.67;;;1.38;;
34497;SDS011;20744;50.938;7.286;2023-04-24T08:22:39;5.20;;;1.15;;
34497;SDS011;20744;50.938;7.286;2023-04-24T08:25:07;1.98;;;0.80;;
34497;SDS011;20744;50.938;7.286;2023-04-24T08:27:34;3.55;;;0.88;;
34497;SDS011;20744;50.938;7.286;2023-04-24T08:30:04;6.50;;;1.27;;
34497;SDS011;20744;50.938;7.286;2023-04-24T08:32:31;3.08;;;1.02;;
34497;SDS011;20744;50.938;7.286;2023-04-24T08:35:00;2.60;;;1.10;;
34497;SDS011;20744;50.938;7.286;2023-04-24T08:37:27;4.15;;;1.17;;
34497;SDS011;20744;50.938;7.286;2023-04-24T08:39:54;4.30;;;1.00;;
34497;SDS011;20744;50.938;7.286;2023-04-24T08:42:22;4.88;;;1.25;;
34497;SDS011;20744;50.938;7.286;2023-04-24T08:44:49;2.50;;;1.02;;
34497;SDS011;20744;50.938;7.286;2023-04-24T08:47:16;2.83;;;0.73;;
34497;SDS011;20744;50.938;7.286;2023-04-24T08:49:44;2.72;;;0.98;;
34497;SDS011;20744;50.938;7.286;2023-04-24T08:52:13;2.17;;;1.13;;
34497;SDS011;20744;50.938;7.286;2023-04-24T08:54:40;3.40;;;0.90;;
34497;SDS011;20744;50.938;7.286;2023-04-24T08:57:10;5.13;;;1.02;;
34497;SDS011;20744;50.938;7.286;2023-04-24T08:59:38;4.18;;;1.00;;
34497;SDS011;20744;50.938;7.286;2023-04-24T09:02:06;2.15;;;0.95;;
34497;SDS011;20744;50.938;7.286;2023-04-24T09:04:37;1.75;;;0.93;;
34497;SDS011;20744;50.938;7.286;2023-04-24T09:07:04;5.07;;;0.90;;
34497;SDS011;20744;50.938;7.286;2023-04-24T09:09:34;3.17;;;0.90;;
34497;SDS011;20744;50.938;7.286;2023-04-24T09:12:02;1.67;;;1.00;;
34497;SDS011;20744;50.938;7.286;2023-04-24T09:14:29;1.50;;;0.70;;
34497;SDS011;20744;50.938;7.286;2023-04-24T09:16:57;1.77;;;0.98;;
34497;SDS011;20744;50.938;7.286;2023-04-24T09:19:24;2.97;;;1.38;;
34497;SDS011;20744;50.938;7.286;2023-04-24T09:21:52;2.95;;;1.40;;
34497;SDS011;20744;50.938;7.286;2023-04-24T09:24:20;2.13;;;1.50;;
34497;SDS011;20744;50.938;7.286;2023-04-24T09:26:55;4.47;;;1.70;;
34497;SDS011;20744;50.938;7.286;2023-04-24T09:29:23;3.20;;;1.85;;
34497;SDS011;20744;50.938;7.286;2023-04-24T09:31:50;10.32;;;2.38;;
34497;SDS011;20744;50.938;7.286;2023-04-24T09:34:20;4.32;;;2.50;;
34497;SDS011;20744;50.938;7.286;2023-04-24T09:36:48;10.02;;;2.65;;
34497;SDS011;20744;50.938;7.286;2023-04-24T09:39:16;6.78;;;2.72;;
34497;SDS011;20744;50.938;7.286;2023-04-24T09:41:45;7.93;;;2.88;;
34497;SDS011;20744;50.938;7.286;2023-04-24T09:44:14;10.60;;;3.10;;
34497;SDS011;20744;50.938;7.286;2023-04-24T09:46:42;6.82;;;3.22;;
34497;SDS011;20744;50.938;7.286;2023-04-24T09:49:10;4.70;;;3.22;;
34497;SDS011;20744;50.938;7.286;2023-04-24T09:51:37;7.55;;;4.05;;
34497;SDS011;20744;50.938;7.286;2023-04-24T09:54:11;7.75;;;4.57;;
34497;SDS011;20744;50.938;7.286;2023-04-24T09:56:41;6.93;;;4.53;;
34497;SDS011;20744;50.938;7.286;2023-04-24T09:59:09;7.97;;;4.90;;
34497;SDS011;20744;50.938;7.286;2023-04-24T10:01:38;12.77;;;7.22;;
34497;SDS011;20744;50.938;7.286;2023-04-24T10:04:14;9.45;;;5.28;;
34497;SDS011;20744;50.938;7.286;2023-04-24T10:06:42;13.23;;;5.35;;
34497;SDS011;20744;50.938;7.286;2023-04-24T10:09:10;9.88;;;4.90;;
34497;SDS011;20744;50.938;7.286;2023-04-24T10:11:37;15.18;;;5.50;;
34497;SDS011;20744;50.938;7.286;2023-04-24T10:14:08;13.95;;;5.70;;
34497;SDS011;20744;50.938;7.286;2023-04-24T10:16:38;10.50;;;6.32;;
34497;SDS011;20744;50.938;7.286;2023-04-24T10:19:06;13.75;;;6.03;;
34497;SDS011;20744;50.938;7.286;2023-04-24T10:21:33;11.68;;;6.82;;
34497;SDS011;20744;50.938;7.286;2023-04-24T10:24:02;13.32;;;7.25;;
34497;SDS011;20744;50.938;7.286;2023-04-24T10:26:30;9.32;;;6.63;;
34497;SDS011;20744;50.938;7.286;2023-04-24T10:28:58;13.55;;;8.15;;
34497;SDS011;20744;50.938;7.286;2023-04-24T10:31:25;21.65;;;10.05;;
34497;SDS011;20744;50.938;7.286;2023-04-24T10:33:54;14.30;;;7.60;;
34497;SDS011;20744;50.938;7.286;2023-04-24T10:36:22;12.02;;;7.35;;
34497;SDS011;20744;50.938;7.286;2023-04-24T10:38:51;15.77;;;7.82;;
34497;SDS011;20744;50.938;7.286;2023-04-24T10:41:19;15.23;;;7.82;;
34497;SDS011;20744;50.938;7.286;2023-04-24T10:43:48;21.25;;;8.77;;
34497;SDS011;20744;50.938;7.286;2023-04-24T10:46:16;11.50;;;7.00;;
34497;SDS011;20744;50.938;7.286;2023-04-24T10:48:51;14.90;;;7.72;;
34497;SDS011;20744;50.938;7.286;2023-04-24T10:51:21;14.25;;;7.93;;
34497;SDS011;20744;50.938;7.286;2023-04-24T10:53:49;11.45;;;6.43;;
34497;SDS011;20744;50.938;7.286;2023-04-24T10:56:17;9.43;;;5.90;;
34497;SDS011;20744;50.938;7.286;2023-04-24T10:58:45;10.27;;;6.35;;
34497;SDS011;20744;50.938;7.286;2023-04-24T11:01:23;14.02;;;7.32;;
34497;SDS011;20744;50.938;7.286;2023-04-24T11:03:54;17.98;;;7.72;;
34497;SDS011;20744;50.938;7.286;2023-04-24T11:06:29;13.35;;;5.78;;
34497;SDS011;20744;50.938;7.286;2023-04-24T11:09:01;14.07;;;6.28;;
34497;SDS011;20744;50.938;7.286;2023-04-24T11:11:30;19.77;;;6.18;;
34497;SDS011;20744;50.938;7.286;2023-04-24T11:14:01;14.35;;;5.93;;
34497;SDS011;20744;50.938;7.286;2023-04-24T11:16:33;12.68;;;5.93;;
34497;SDS011;20744;50.938;7.286;2023-04-24T11:19:01;14.35;;;6.28;;
34497;SDS011;20744;50.938;7.286;2023-04-24T11:21:32;12.52;;;6.07;;
34497;SDS011;20744;50.938;7.286;2023-04-24T11:27:07;19.80;;;6.20;;
34497;SDS011;20744;50.938;7.286;2023-04-24T11:29:43;12.13;;;5.15;;
34497;SDS011;20744;50.938;7.286;2023-04-24T11:32:26;14.02;;;5.40;;
34497;SDS011;20744;50.938;7.286;2023-04-24T11:34:54;14.50;;;5.00;;
34497;SDS011;20744;50.938;7.286;2023-04-24T11:37:24;15.63;;;4.80;;
34497;SDS011;20744;50.938;7.286;2023-04-24T11:39:52;12.57;;;4.60;;
34497;SDS011;20744;50.938;7.286;2023-04-24T11:42:20;11.48;;;4.18;;
34497;SDS011;20744;50.938;7.286;2023-04-24T11:44:47;11.45;;;4.57;;
34497;SDS011;20744;50.938;7.286;2023-04-24T11:47:14;13.05;;;4.68;;
34497;SDS011;20744;50.938;7.286;2023-04-24T11:49:42;18.48;;;4.97;;
34497;SDS011;20744;50.938;7.286;2023-04-24T11:52:09;14.32;;;4.82;;
34497;SDS011;20744;50.938;7.286;2023-04-24T11:54:38;14.15;;;4.60;;
34497;SDS011;20744;50.938;7.286;2023-04-24T11:57:13;13.77;;;4.57;;
34497;SDS011;20744;50.938;7.286;2023-04-24T11:59:40;13.32;;;4.72;;
34497;SDS011;20744;50.938;7.286;2023-04-24T12:02:08;13.05;;;5.25;;
34497;SDS011;20744;50.938;7.286;2023-04-24T12:04:39;13.73;;;4.90;;
34497;SDS011;20744;50.938;7.286;2023-04-24T12:07:07;14.15;;;4.97;;
34497;SDS011;20744;50.938;7.286;2023-04-24T12:09:42;10.73;;;4.68;;
34497;SDS011;20744;50.938;7.286;2023-04-24T12:12:12;10.77;;;5.07;;
34497;SDS011;20744;50.938;7.286;2023-04-24T12:19:56;15.18;;;5.25;;
34497;SDS011;20744;50.938;7.286;2023-04-24T12:22:24;13.38;;;4.95;;
34497;SDS011;20744;50.938;7.286;2023-04-24T12:24:59;11.48;;;5.00;;
34497;SDS011;20744;50.938;7.286;2023-04-24T12:27:28;16.60;;;5.53;;
34497;SDS011;20744;50.938;7.286;2023-04-24T12:29:56;12.10;;;5.47;;
34497;SDS011;20744;50.938;7.286;2023-04-24T12:32:24;15.95;;;6.38;;
34497;SDS011;20744;50.938;7.286;2023-04-24T12:34:51;18.27;;;6.25;;
34497;SDS011;20744;50.938;7.286;2023-04-24T12:37:19;16.70;;;5.90;;
34497;SDS011;20744;50.938;7.286;2023-04-24T12:40:00;12.35;;;6.10;;
34497;SDS011;20744;50.938;7.286;2023-04-24T12:42:28;13.30;;;5.90;;
34497;SDS011;20744;50.938;7.286;2023-04-24T12:44:56;15.30;;;6.30;;
34497;SDS011;20744;50.938;7.286;2023-04-24T12:47:24;18.73;;;7.25;;
34497;SDS011;20744;50.938;7.286;2023-04-24T12:49:52;18.08;;;8.05;;
34497;SDS011;20744;50.938;7.286;2023-04-24T12:52:20;20.50;;;8.90;;
34497;SDS011;20744;50.938;7.286;2023-04-24T12:54:48;22.23;;;8.10;;
34497;SDS011;20744;50.938;7.286;2023-04-24T12:57:17;22.73;;;8.90;;
34497;SDS011;20744;50.938;7.286;2023-04-24T12:59:44;17.55;;;7.53;;
34497;SDS011;20744;50.938;7.286;2023-04-24T13:02:12;14.00;;;6.90;;
34497;SDS011;20744;50.938;7.286;2023-04-24T13:04:42;19.13;;;7.32;;
34497;SDS011;20744;50.938;7.286;2023-04-24T13:07:09;17.25;;;7.55;;
34497;SDS011;20744;50.938;7.286;2023-04-24T13:09:37;17.50;;;6.85;;
34497;SDS011;20744;50.938;7.286;2023-04-24T13:12:05;14.70;;;6.15;;
34497;SDS011;20744;50.938;7.286;2023-04-24T13:14:34;19.05;;;6.47;;
34497;SDS011;20744;50.938;7.286;2023-04-24T13:17:01;17.40;;;6.18;;
34497;SDS011;20744;50.938;7.286;2023-04-24T13:19:28;16.42;;;5.45;;
34497;SDS011;20744;50.938;7.286;2023-04-24T13:21:56;13.73;;;5.70;;
34497;SDS011;20744;50.938;7.286;2023-04-24T13:24:24;14.98;;;5.50;;
34497;SDS011;20744;50.938;7.286;2023-04-24T13:26:51;12.27;;;5.65;;
34497;SDS011;20744;50.938;7.286;2023-04-24T13:29:18;13.50;;;5.85;;
34497;SDS011;20744;50.938;7.286;2023-04-24T13:31:47;12.05;;;5.25;;
34497;SDS011;20744;50.938;7.286;2023-04-24T13:34:14;14.45;;;5.78;;
34497;SDS011;20744;50.938;7.286;2023-04-24T13:36:42;10.13;;;5.38;;
34497;SDS011;20744;50.938;7.286;2023-04-24T13:39:09;19.98;;;5.47;;
34497;SDS011;20744;50.938;7.286;2023-04-24T13:41:36;13.65;;;5.32;;
34497;SDS011;20744;50.938;7.286;2023-04-24T13:44:03;15.40;;;5.93;;
34497;SDS011;20744;50.938;7.286;2023-04-24T13:46:31;12.93;;;5.25;;
34497;SDS011;20744;50.938;7.286;2023-04-24T13:48:59;13.52;;;5.82;;
34497;SDS011;20744;50.938;7.286;2023-04-24T13:51:28;11.95;;;5.93;;
34497;SDS011;20744;50.938;7.286;2023-04-24T13:53:56;12.40;;;5.30;;
34497;SDS011;20744;50.938;7.286;2023-04-24T13:56:23;13.13;;;5.40;;
34497;SDS011;20744;50.938;7.286;2023-04-24T13:58:50;15.52;;;6.15;;
34497;SDS011;20744;50.938;7.286;2023-04-24T14:01:19;17.25;;;6.18;;
34497;SDS011;20744;50.938;7.286;2023-04-24T14:03:49;14.40;;;5.20;;
34497;SDS011;20744;50.938;7.286;2023-04-24T14:06:18;10.82;;;4.93;;
34497;SDS011;20744;50.938;7.286;2023-04-24T14:08:46;15.02;;;5.28;;
34497;SDS011;20744;50.938;7.286;2023-04-24T14:11:13;9.82;;;4.10;;
34497;SDS011;20744;50.938;7.286;2023-04-24T14:13:41;10.23;;;4.20;;
34497;SDS011;20744;50.938;7.286;2023-04-24T14:16:08;14.15;;;4.28;;
34497;SDS011;20744;50.938;7.286;2023-04-24T14:18:36;14.07;;;4.10;;
34497;SDS011;20744;50.938;7.286;2023-04-24T14:21:03;11.35;;;4.18;;
34497;SDS011;20744;50.938;7.286;2023-04-24T14:23:32;14.70;;;4.57;;
34497;SDS011;20744;50.938;7.286;2023-04-24T14:25:59;12.88;;;3.72;;
34497;SDS011;20744;50.938;7.286;2023-04-24T14:28:27;10.05;;;4.18;;
34497;SDS011;20744;50.938;7.286;2023-04-24T14:30:54;12.82;;;3.50;;
34497;SDS011;20744;50.938;7.286;2023-04-24T14:33:21;12.07;;;4.05;;
34497;SDS011;20744;50.938;7.286;2023-04-24T14:35:49;11.55;;;3.20;;
34497;SDS011;20744;50.938;7.286;2023-04-24T14:38:16;10.18;;;3.55;;
34497;SDS011;20744;50.938;7.286;2023-04-24T14:40:45;17.15;;;3.78;;
34497;SDS011;20744;50.938;7.286;2023-04-24T14:43:12;13.73;;;3.70;;
34497;SDS011;20744;50.938;7.286;2023-04-24T14:45:39;10.07;;;3.80;;
34497;SDS011;20744;50.938;7.286;2023-04-24T14:48:07;10.35;;;3.38;;
34497;SDS011;20744;50.938;7.286;2023-04-24T14:50:36;8.63;;;4.10;;
34497;SDS011;20744;50.938;7.286;2023-04-24T14:53:03;10.50;;;3.88;;
34497;SDS011;20744;50.938;7.286;2023-04-24T14:55:30;10.18;;;3.65;;